Photometre #44[NE_1.6] Rome_La_Sapienza AOT

File : 20220928_44.hum

28/09/2022,05:51:36,TEMP=17.8,BA=5.68,STAT.A=6.5,ExtBa=13.36
28/09/2022,05:55:04,TEMP=18.0,BA=5.68,STAT.A=6.5,ExtBa=13.36
28/09/2022,05:59:09,TEMP=18.0,BA=5.68,STAT.A=6.5,ExtBa=13.36
28/09/2022,06:03:59,TEMP=18.0,BA=5.56,STAT.A=6.5,ExtBa=13.35
28/09/2022,06:09:49,TEMP=18.0,BA=5.56,STAT.A=6.5,ExtBa=13.36
28/09/2022,06:17:01,TEMP=18.0,BA=5.60,STAT.A=6.5,ExtBa=13.36
28/09/2022,06:26:08,TEMP=18.1,BA=5.68,STAT.B=6.5,ExtBa=13.36
28/09/2022,06:37:25,TEMP=18.2,BA=5.52,STAT.A=6.5,ExtBa=12.97
28/09/2022,06:39:36,TEMP=18.5,BA=5.52,STAT.A=6.5,ExtBa=13.02
28/09/2022,06:41:45,TEMP=18.6,BA=5.52,STAT.A=6.5,ExtBa=13.04
28/09/2022,06:47:11,TEMP=18.8,BA=5.52,STAT.A=6.5,ExtBa=13.16
28/09/2022,06:54:25,TEMP=19.2,BA=5.68,STAT.C=6.5,ExtBa=13.22
28/09/2022,07:13:52,TEMP=20.6,BA=5.52,STAT.A=6.5,ExtBa=12.97
28/09/2022,07:16:03,TEMP=20.9,BA=5.52,STAT.A=6.5,ExtBa=12.99
28/09/2022,07:24:45,TEMP=21.7,BA=5.52,STAT.A=6.5,ExtBa=13.24
28/09/2022,07:39:31,TEMP=22.9,BA=5.68,STAT.A=6.5,ExtBa=13.39
28/09/2022,07:58:21,TEMP=23.2,BA=5.68,STAT.B=6.5,ExtBa=13.44
28/09/2022,08:01:13,TEMP=23.1,BA=5.52,STAT.F,ExtBa=13.39
28/09/2022,08:16:11,TEMP=23.0,BA=5.68,STAT.D=6.5,ExtBa=13.46
28/09/2022,08:31:11,TEMP=23.6,BA=5.68,STAT.D=6.5,ExtBa=13.47
28/09/2022,08:46:11,TEMP=23.9,BA=5.68,STAT.D=6.5,ExtBa=13.48
28/09/2022,09:01:13,TEMP=23.1,BA=5.68,STAT.F,ExtBa=13.48
28/09/2022,09:16:12,TEMP=22.5,BA=5.68,STAT.D=6.5,ExtBa=13.47
28/09/2022,09:31:12,TEMP=22.6,BA=5.68,STAT.D=6.5,ExtBa=13.44
28/09/2022,09:46:12,TEMP=24.0,BA=5.68,STAT.D=6.5,ExtBa=13.42
28/09/2022,10:01:13,TEMP=24.0,BA=5.68,STAT.F,ExtBa=13.40
28/09/2022,10:16:12,TEMP=24.3,BA=5.64,STAT.D=6.5,ExtBa=13.39
28/09/2022,10:31:12,TEMP=24.5,BA=5.64,STAT.D=6.5,ExtBa=13.38
28/09/2022,10:46:12,TEMP=25.6,BA=5.64,STAT.D=6.5,ExtBa=13.38
28/09/2022,11:01:14,TEMP=26.3,BA=5.64,STAT.F,ExtBa=13.37
28/09/2022,11:16:12,TEMP=26.6,BA=5.64,STAT.D=7.0,ExtBa=13.36
28/09/2022,11:31:12,TEMP=26.8,BA=5.60,STAT.D=7.0,ExtBa=13.36
28/09/2022,11:46:12,TEMP=26.5,BA=5.60,STAT.D=7.0,ExtBa=13.35
28/09/2022,12:19:44,TEMP=26.7,BA=5.48,STAT.b=7.0
28/09/2022,12:31:11,TEMP=26.3,BA=5.56,STAT.D=7.0,ExtBa=13.36
28/09/2022,12:46:12,TEMP=26.4,BA=5.56,STAT.D=7.0,ExtBa=13.43
28/09/2022,13:01:13,TEMP=26.1,BA=5.56,STAT.F,ExtBa=13.45
28/09/2022,13:12:50,TEMP=25.9,BA=5.48,STAT.b=7.0
28/09/2022,13:16:12,TEMP=25.7,BA=5.48,STAT.D=7.0,ExtBa=13.21
28/09/2022,13:31:11,TEMP=25.4,BA=5.56,STAT.D=7.0,ExtBa=13.42
28/09/2022,13:46:11,TEMP=25.1,BA=5.56,STAT.D=7.0,ExtBa=13.45
28/09/2022,14:01:13,TEMP=25.5,BA=5.60,STAT.F,ExtBa=13.40
28/09/2022,14:13:04,TEMP=25.5,BA=5.48,STAT.b=7.0
28/09/2022,14:13:58,TEMP=25.5,BA=5.48,STAT.B=6.5,ExtBa=13.07
28/09/2022,14:25:10,TEMP=24.9,BA=5.44,STAT.A=7.0,ExtBa=12.98
28/09/2022,14:37:41,TEMP=25.8,BA=5.56,STAT.A=7.0,ExtBa=13.33
28/09/2022,14:49:37,TEMP=26.2,BA=5.52,STAT.A=6.5,ExtBa=13.38
28/09/2022,14:59:35,TEMP=25.5,BA=5.48,STAT.A=7.0,ExtBa=13.40
28/09/2022,15:07:59,TEMP=24.4,BA=5.48,STAT.C=7.0,ExtBa=13.42
28/09/2022,15:19:35,TEMP=24.1,BA=5.48,STAT.b=7.0
28/09/2022,15:20:29,TEMP=24.2,BA=5.44,STAT.A=7.0,ExtBa=13.06
28/09/2022,15:22:37,TEMP=24.4,BA=5.44,STAT.A=6.5,ExtBa=13.06
28/09/2022,15:27:00,TEMP=24.2,BA=5.44,STAT.A=6.5,ExtBa=13.11
28/09/2022,15:31:54,TEMP=24.2,BA=5.56,STAT.A=7.0,ExtBa=13.18
28/09/2022,15:36:16,TEMP=24.2,BA=5.56,STAT.B=6.5,ExtBa=13.19
28/09/2022,15:47:21,TEMP=23.4,BA=5.44,STAT.A=7.0,ExtBa=12.96
28/09/2022,15:52:35,TEMP=23.2,BA=5.56,STAT.A=7.0,ExtBa=13.14
28/09/2022,15:58:25,TEMP=23.2,BA=5.56,STAT.A=6.5,ExtBa=13.17
28/09/2022,16:03:15,TEMP=23.3,BA=5.44,STAT.A=6.5,ExtBa=13.15
28/09/2022,16:07:18,TEMP=23.2,BA=5.44,STAT.A=6.5,ExtBa=13.22
28/09/2022,16:10:48,TEMP=23.1,BA=5.56,STAT.A=6.5,ExtBa=13.25